Time;durP1;ratioP1;P1;durP2;ratioP2;P2;SDS_P1;SDS_P2;PMS_P1;PMS_P2;Temp;Humidity;BMP_temperature;BMP_pressure;BME280_temperature;BME280_humidity;BME280_pressure;Samples;Min_cycle;Max_cycle;Signal;HPM_P1;HPM_P2
2021/04/27 00:00:15;;;;;;;7.00;3.17;;;;;;;;;;5051277;28;20020;-70
2021/04/27 00:02:40;;;;;;;9.57;2.75;;;;;;;;;;5049281;28;20390;-70
2021/04/27 00:05:06;;;;;;;5.75;3.45;;;;;;;;;;5050137;28;20096;-70
2021/04/27 00:07:32;;;;;;;7.45;3.20;;;;;;;;;;5050005;28;20016;-70
2021/04/27 00:09:57;;;;;;;4.95;3.00;;;;;;;;;;5054463;28;20386;-69
2021/04/27 00:12:22;;;;;;;4.82;2.90;;;;;;;;;;5053808;28;20432;-69
2021/04/27 00:14:47;;;;;;;9.15;3.00;;;;;;;;;;5044280;28;20029;-69
2021/04/27 00:17:13;;;;;;;5.82;2.67;;;;;;;;;;4855682;28;20689;-72
2021/04/27 00:19:38;;;;;;;6.20;3.17;;;;;;;;;;4704475;28;21172;-73
2021/04/27 00:22:03;;;;;;;8.07;3.38;;;;;;;;;;4643746;28;20714;-71
2021/04/27 00:24:31;;;;;;;14.02;3.22;;;;;;;;;;4844100;28;20025;-69
2021/04/27 00:26:57;;;;;;;5.25;2.65;;;;;;;;;;5056106;28;20044;-68
2021/04/27 00:29:22;;;;;;;10.10;2.95;;;;;;;;;;5049864;28;20021;-69
2021/04/27 00:31:47;;;;;;;5.40;2.55;;;;;;;;;;5054336;28;20036;-68
2021/04/27 00:34:12;;;;;;;9.53;3.20;;;;;;;;;;5052891;28;20429;-68
2021/04/27 00:36:38;;;;;;;7.75;3.45;;;;;;;;;;5047057;28;20276;-69
2021/04/27 00:39:03;;;;;;;6.05;2.80;;;;;;;;;;5050321;28;20131;-69
2021/04/27 00:41:28;;;;;;;11.88;3.08;;;;;;;;;;5054670;28;20111;-68
2021/04/27 00:43:54;;;;;;;7.97;2.92;;;;;;;;;;5052447;28;20075;-69
2021/04/27 00:46:19;;;;;;;5.03;2.80;;;;;;;;;;5058324;28;20081;-67
2021/04/27 00:48:44;;;;;;;9.82;2.97;;;;;;;;;;5058143;28;20053;-68
2021/04/27 00:51:09;;;;;;;8.97;2.57;;;;;;;;;;5055899;28;20029;-68
2021/04/27 00:53:35;;;;;;;4.43;2.47;;;;;;;;;;5039273;28;20259;-68
2021/04/27 00:56:00;;;;;;;9.10;3.13;;;;;;;;;;5062888;28;20499;-69
2021/04/27 00:58:27;;;;;;;5.35;2.70;;;;;;;;;;5062279;28;20031;-68
2021/04/27 01:00:53;;;;;;;9.55;2.85;;;;;;;;;;5049114;28;20086;-69
2021/04/27 01:03:18;;;;;;;4.90;2.70;;;;;;;;;;5051216;28;20481;-69
2021/04/27 01:05:44;;;;;;;6.60;2.70;;;;;;;;;;5050564;28;20028;-68
2021/04/27 01:08:28;;;;;;;5.15;2.45;;;;;;;;;;5046831;28;20021;-68
2021/04/27 01:10:56;;;;;;;4.18;2.60;;;;;;;;;;5067985;22;20025;-62
2021/04/27 01:13:42;;;;;;;7.00;2.90;;;;;;;;;;5084829;28;20487;-63
2021/04/27 01:16:08;;;;;;;8.30;3.35;;;;;;;;;;5080251;28;20472;-63
2021/04/27 01:18:34;;;;;;;13.07;3.17;;;;;;;;;;5083876;28;20024;-63
2021/04/27 01:21:01;;;;;;;5.68;3.10;;;;;;;;;;5092055;28;20024;-63
2021/04/27 01:23:44;;;;;;;4.40;2.55;;;;;;;;;;5091784;28;20016;-63
2021/04/27 01:26:33;;;;;;;5.32;2.40;;;;;;;;;;5090444;28;20537;-63
2021/04/27 01:28:58;;;;;;;8.13;3.08;;;;;;;;;;5076469;28;20067;-63
2021/04/27 01:31:24;;;;;;;9.80;2.60;;;;;;;;;;5087285;28;20516;-63
2021/04/27 01:33:50;;;;;;;5.03;2.80;;;;;;;;;;5089198;28;20020;-63
2021/04/27 01:36:15;;;;;;;8.90;2.60;;;;;;;;;;5090040;28;20492;-63
2021/04/27 01:38:41;;;;;;;5.53;2.63;;;;;;;;;;5087996;28;20046;-63
2021/04/27 01:41:07;;;;;;;9.27;2.45;;;;;;;;;;5089507;28;20024;-63
2021/04/27 01:43:33;;;;;;;3.78;2.38;;;;;;;;;;5085536;28;20012;-63
2021/04/27 01:46:00;;;;;;;4.72;2.47;;;;;;;;;;5081721;28;20053;-63
2021/04/27 01:48:25;;;;;;;8.30;3.03;;;;;;;;;;5090034;28;20012;-63
2021/04/27 01:50:53;;;;;;;5.75;2.83;;;;;;;;;;5091564;28;20020;-63
2021/04/27 01:53:18;;;;;;;5.13;2.45;;;;;;;;;;5079193;28;20063;-63
2021/04/27 01:55:43;;;;;;;4.93;2.35;;;;;;;;;;5087649;28;20056;-63
2021/04/27 01:58:09;;;;;;;7.28;2.67;;;;;;;;;;5088436;28;20020;-63
2021/04/27 02:00:34;;;;;;;6.65;2.53;;;;;;;;;;5089448;28;20069;-63
2021/04/27 02:02:59;;;;;;;4.40;2.13;;;;;;;;;;5089194;28;20685;-63
2021/04/27 02:05:24;;;;;;;8.30;2.47;;;;;;;;;;5088888;28;20527;-63
2021/04/27 02:07:50;;;;;;;6.40;2.90;;;;;;;;;;5088026;28;20076;-63
2021/04/27 02:10:15;;;;;;;7.40;2.10;;;;;;;;;;5088847;28;20020;-63
2021/04/27 02:12:47;;;;;;;5.85;2.72;;;;;;;;;;5087036;28;20152;-63
2021/04/27 02:15:16;;;;;;;3.88;2.38;;;;;;;;;;5087765;28;20413;-63
2021/04/27 02:17:45;;;;;;;7.05;2.60;;;;;;;;;;5089887;28;20030;-63
2021/04/27 02:20:10;;;;;;;4.00;2.33;;;;;;;;;;5090721;28;20032;-63
2021/04/27 02:22:36;;;;;;;7.15;2.78;;;;;;;;;;5091742;28;20020;-63
2021/04/27 02:25:03;;;;;;;6.90;3.10;;;;;;;;;;5091701;28;20031;-63
2021/04/27 02:27:30;;;;;;;8.65;2.75;;;;;;;;;;5091405;28;20016;-63
2021/04/27 02:29:56;;;;;;;8.52;3.40;;;;;;;;;;5091337;28;20019;-63
2021/04/27 02:32:21;;;;;;;6.10;2.47;;;;;;;;;;5091176;28;20073;-63
2021/04/27 02:34:47;;;;;;;7.07;2.85;;;;;;;;;;5087314;28;20032;-63
2021/04/27 02:37:12;;;;;;;8.40;3.58;;;;;;;;;;5086480;28;20050;-63
2021/04/27 02:39:37;;;;;;;3.70;2.22;;;;;;;;;;5089866;28;20144;-63
2021/04/27 02:42:03;;;;;;;3.75;2.30;;;;;;;;;;5080148;28;20008;-63
2021/04/27 02:44:29;;;;;;;8.63;2.15;;;;;;;;;;5091089;28;20463;-63
2021/04/27 02:46:54;;;;;;;4.65;2.35;;;;;;;;;;5090609;28;20020;-63
2021/04/27 02:49:19;;;;;;;6.13;2.67;;;;;;;;;;5089967;28;20039;-63
2021/04/27 02:51:44;;;;;;;7.00;2.90;;;;;;;;;;5090394;28;20024;-63
2021/04/27 02:54:10;;;;;;;6.03;2.95;;;;;;;;;;5084010;28;20032;-63
2021/04/27 02:56:35;;;;;;;5.35;2.58;;;;;;;;;;5090954;28;20475;-63
2021/04/27 02:59:01;;;;;;;6.50;2.72;;;;;;;;;;5089783;28;20016;-63
2021/04/27 03:01:27;;;;;;;7.95;2.67;;;;;;;;;;5090341;28;20054;-63
2021/04/27 03:03:52;;;;;;;4.50;2.40;;;;;;;;;;5090758;28;20024;-63
2021/04/27 03:06:17;;;;;;;9.55;3.10;;;;;;;;;;5081718;28;20024;-63
2021/04/27 03:08:42;;;;;;;6.80;2.80;;;;;;;;;;5089820;28;20056;-63
2021/04/27 03:11:07;;;;;;;10.57;2.50;;;;;;;;;;5086050;28;20081;-63
2021/04/27 03:13:34;;;;;;;10.52;2.72;;;;;;;;;;5081318;28;20104;-63
2021/04/27 03:15:59;;;;;;;8.35;2.53;;;;;;;;;;5077936;28;20024;-63
2021/04/27 03:18:24;;;;;;;13.25;2.92;;;;;;;;;;5085556;28;20050;-63
2021/04/27 03:20:49;;;;;;;6.50;2.88;;;;;;;;;;5089485;28;20027;-63
2021/04/27 03:23:14;;;;;;;5.25;2.45;;;;;;;;;;5085768;28;20016;-63
2021/04/27 03:25:40;;;;;;;6.70;2.97;;;;;;;;;;5089651;28;20110;-63
2021/04/27 03:28:05;;;;;;;8.40;2.47;;;;;;;;;;5087771;28;20377;-61
2021/04/27 03:30:31;;;;;;;5.22;2.60;;;;;;;;;;5088005;28;20024;-62
2021/04/27 03:32:57;;;;;;;4.40;2.83;;;;;;;;;;5078829;28;20139;-64
2021/04/27 03:35:22;;;;;;;5.63;2.78;;;;;;;;;;5090079;28;20103;-63
2021/04/27 03:37:47;;;;;;;5.03;2.47;;;;;;;;;;5088641;28;20031;-64
2021/04/27 03:40:13;;;;;;;10.30;2.85;;;;;;;;;;5090385;28;20642;-64
2021/04/27 03:42:38;;;;;;;5.05;2.92;;;;;;;;;;5091029;28;20028;-63
2021/04/27 03:45:07;;;;;;;9.43;2.78;;;;;;;;;;5090540;28;20016;-64
2021/04/27 03:47:32;;;;;;;10.52;2.90;;;;;;;;;;5089679;28;20016;-64
2021/04/27 03:49:58;;;;;;;6.50;2.30;;;;;;;;;;5087478;28;20024;-63
2021/04/27 03:52:23;;;;;;;4.35;2.50;;;;;;;;;;5086606;28;20072;-64
2021/04/27 03:54:48;;;;;;;6.00;2.50;;;;;;;;;;5089420;28;20035;-63
2021/04/27 03:57:13;;;;;;;6.00;2.78;;;;;;;;;;5084344;28;20074;-63
2021/04/27 03:59:39;;;;;;;14.60;2.80;;;;;;;;;;5088075;28;20024;-63
2021/04/27 04:02:04;;;;;;;12.10;3.10;;;;;;;;;;5088425;28;20035;-64
2021/04/27 04:04:29;;;;;;;11.77;3.33;;;;;;;;;;5089229;28;20087;-64
2021/04/27 04:06:54;;;;;;;13.82;2.92;;;;;;;;;;5089403;28;20020;-65
2021/04/27 04:09:19;;;;;;;8.75;3.10;;;;;;;;;;5089599;28;20059;-64
2021/04/27 04:11:45;;;;;;;11.73;3.35;;;;;;;;;;5084380;28;20024;-63
2021/04/27 04:14:10;;;;;;;7.10;2.80;;;;;;;;;;5081416;28;20067;-62
2021/04/27 04:16:36;;;;;;;10.93;3.70;;;;;;;;;;5080714;28;20020;-62
2021/04/27 04:19:01;;;;;;;12.25;3.00;;;;;;;;;;5087189;28;20396;-62
2021/04/27 04:21:26;;;;;;;8.68;2.95;;;;;;;;;;5085929;28;20056;-62
2021/04/27 04:23:52;;;;;;;8.13;2.60;;;;;;;;;;5087152;28;20020;-62
2021/04/27 04:26:17;;;;;;;7.63;2.13;;;;;;;;;;5087084;28;20107;-62
2021/04/27 04:28:43;;;;;;;5.15;2.55;;;;;;;;;;5086375;28;20024;-62
2021/04/27 04:31:08;;;;;;;5.32;2.00;;;;;;;;;;5087064;28;20432;-62
2021/04/27 04:33:33;;;;;;;4.78;2.45;;;;;;;;;;5085611;28;20395;-62
2021/04/27 04:35:59;;;;;;;5.03;2.85;;;;;;;;;;5084584;28;20451;-62
2021/04/27 04:38:24;;;;;;;3.97;2.13;;;;;;;;;;5085247;28;20434;-62
2021/04/27 04:40:49;;;;;;;7.85;2.60;;;;;;;;;;5087232;28;20542;-63
2021/04/27 04:43:16;;;;;;;6.10;2.65;;;;;;;;;;5087596;28;20031;-62
2021/04/27 04:45:41;;;;;;;4.93;2.22;;;;;;;;;;5087143;28;20020;-62
2021/04/27 04:48:07;;;;;;;7.72;2.67;;;;;;;;;;5086330;28;20723;-62
2021/04/27 04:50:32;;;;;;;7.32;2.17;;;;;;;;;;5087100;28;20020;-62
2021/04/27 04:52:57;;;;;;;6.93;2.03;;;;;;;;;;5076844;28;20476;-62
2021/04/27 04:55:22;;;;;;;4.05;2.05;;;;;;;;;;5077955;28;20032;-62
2021/04/27 04:57:48;;;;;;;5.55;1.80;;;;;;;;;;5087052;28;20016;-62
2021/04/27 05:00:15;;;;;;;4.63;1.98;;;;;;;;;;5080254;28;20060;-62
2021/04/27 05:02:40;;;;;;;11.55;2.10;;;;;;;;;;5084994;28;20027;-62
2021/04/27 05:05:06;;;;;;;8.35;2.42;;;;;;;;;;5085052;28;20012;-62
2021/04/27 05:07:33;;;;;;;4.47;2.45;;;;;;;;;;5090739;28;20055;-62
2021/04/27 05:09:58;;;;;;;5.80;2.17;;;;;;;;;;5089673;28;20038;-62
2021/04/27 05:12:23;;;;;;;4.45;1.52;;;;;;;;;;5087558;28;20032;-62
2021/04/27 05:14:49;;;;;;;7.47;2.47;;;;;;;;;;5077927;28;20036;-63
2021/04/27 05:17:15;;;;;;;4.22;2.17;;;;;;;;;;5087367;28;20051;-62
2021/04/27 05:19:40;;;;;;;2.67;1.67;;;;;;;;;;5089812;28;20035;-62
2021/04/27 05:22:06;;;;;;;5.72;1.83;;;;;;;;;;5090402;28;20028;-63
2021/04/27 05:24:32;;;;;;;5.95;1.90;;;;;;;;;;5089463;28;20054;-63
2021/04/27 05:26:58;;;;;;;6.47;1.85;;;;;;;;;;5089562;28;20054;-63
2021/04/27 05:29:23;;;;;;;8.52;1.77;;;;;;;;;;5089949;28;20020;-63
2021/04/27 05:31:49;;;;;;;12.32;2.30;;;;;;;;;;5087307;28;20028;-63
2021/04/27 05:34:14;;;;;;;2.92;1.60;;;;;;;;;;5081248;28;20021;-63
2021/04/27 05:36:40;;;;;;;1.63;0.90;;;;;;;;;;5087794;28;20403;-63
2021/04/27 05:39:05;;;;;;;7.60;1.75;;;;;;;;;;5090329;28;20035;-63
2021/04/27 05:41:30;;;;;;;11.60;2.35;;;;;;;;;;5082770;28;20019;-63
2021/04/27 05:43:55;;;;;;;4.85;2.35;;;;;;;;;;5081675;28;20016;-63
2021/04/27 05:46:20;;;;;;;4.85;1.65;;;;;;;;;;5090195;28;20412;-63
2021/04/27 05:48:45;;;;;;;6.38;2.30;;;;;;;;;;5086698;28;20032;-63
2021/04/27 05:51:11;;;;;;;3.30;1.63;;;;;;;;;;5073606;28;20032;-63
2021/04/27 05:53:36;;;;;;;5.00;1.70;;;;;;;;;;5089739;28;20027;-63
2021/04/27 05:56:01;;;;;;;4.22;1.80;;;;;;;;;;5089531;28;20066;-63
2021/04/27 05:58:27;;;;;;;9.25;1.95;;;;;;;;;;5091364;28;20031;-63
2021/04/27 06:00:52;;;;;;;4.50;1.83;;;;;;;;;;5091162;28;20016;-63
2021/04/27 06:03:17;;;;;;;6.68;2.20;;;;;;;;;;5091608;28;20522;-63
2021/04/27 06:05:42;;;;;;;8.43;2.60;;;;;;;;;;5091846;28;20022;-63
2021/04/27 06:08:07;;;;;;;9.07;2.10;;;;;;;;;;5091125;28;20607;-63
2021/04/27 06:10:32;;;;;;;4.28;1.52;;;;;;;;;;5089032;28;20341;-63
2021/04/27 06:12:58;;;;;;;4.00;1.48;;;;;;;;;;5087234;28;20073;-63
2021/04/27 06:15:23;;;;;;;12.30;1.75;;;;;;;;;;5081936;28;20024;-63
2021/04/27 06:17:48;;;;;;;5.95;1.30;;;;;;;;;;5078725;28;20103;-63
2021/04/27 06:20:14;;;;;;;6.10;1.70;;;;;;;;;;5088779;28;20016;-63
2021/04/27 06:22:39;;;;;;;2.92;1.80;;;;;;;;;;5086476;28;20035;-63
2021/04/27 06:25:06;;;;;;;3.45;1.63;;;;;;;;;;5088935;28;20024;-63
2021/04/27 06:27:31;;;;;;;5.03;1.63;;;;;;;;;;5090067;28;20028;-63
2021/04/27 06:29:58;;;;;;;4.38;1.63;;;;;;;;;;5089918;28;20408;-63
2021/04/27 06:32:23;;;;;;;1.92;0.93;;;;;;;;;;5090643;28;20035;-63
2021/04/27 06:34:48;;;;;;;4.72;2.13;;;;;;;;;;5090191;28;20023;-63
2021/04/27 06:37:14;;;;;;;3.65;1.85;;;;;;;;;;5086106;28;20098;-63
2021/04/27 06:39:40;;;;;;;12.00;1.15;;;;;;;;;;5091106;28;20023;-63
2021/04/27 06:42:05;;;;;;;3.53;1.35;;;;;;;;;;5091559;28;20439;-63
2021/04/27 06:44:31;;;;;;;5.85;2.05;;;;;;;;;;5090909;28;20061;-63
2021/04/27 06:46:56;;;;;;;4.03;1.70;;;;;;;;;;5088657;28;20027;-63
2021/04/27 06:49:21;;;;;;;2.03;1.23;;;;;;;;;;5089993;28;20020;-63
2021/04/27 06:51:47;;;;;;;5.07;1.55;;;;;;;;;;5087245;28;20069;-63
2021/04/27 06:54:12;;;;;;;3.33;1.40;;;;;;;;;;5090850;28;20107;-63
2021/04/27 06:56:37;;;;;;;1.65;0.98;;;;;;;;;;5090405;28;20016;-63
2021/04/27 06:59:02;;;;;;;10.98;1.88;;;;;;;;;;5089395;28;20027;-63
2021/04/27 07:01:30;;;;;;;4.72;2.00;;;;;;;;;;5090714;28;20361;-63
2021/04/27 07:03:55;;;;;;;7.35;2.00;;;;;;;;;;5090317;28;20464;-63
2021/04/27 07:06:20;;;;;;;5.80;2.10;;;;;;;;;;5089745;28;20167;-63
2021/04/27 07:08:45;;;;;;;6.00;1.98;;;;;;;;;;5090170;28;20288;-63
2021/04/27 07:11:11;;;;;;;4.63;1.45;;;;;;;;;;5113175;23;20031;-67
2021/04/27 07:13:36;;;;;;;4.18;1.95;;;;;;;;;;5065479;28;20029;-65
2021/04/27 07:16:02;;;;;;;6.50;1.98;;;;;;;;;;5062934;28;20174;-65
2021/04/27 07:18:27;;;;;;;2.70;1.40;;;;;;;;;;5069894;28;20161;-65
2021/04/27 07:20:52;;;;;;;8.60;2.10;;;;;;;;;;5069988;28;20265;-65
2021/04/27 07:23:18;;;;;;;5.60;1.53;;;;;;;;;;5070567;28;20021;-65
2021/04/27 07:25:43;;;;;;;5.72;2.00;;;;;;;;;;5069059;28;20267;-65
2021/04/27 07:28:10;;;;;;;4.77;1.73;;;;;;;;;;5068493;28;20028;-65
2021/04/27 07:30:35;;;;;;;4.97;1.83;;;;;;;;;;5070038;28;20417;-65
2021/04/27 07:33:01;;;;;;;6.05;1.83;;;;;;;;;;5070065;28;20107;-65
2021/04/27 07:35:26;;;;;;;5.38;1.88;;;;;;;;;;5067807;28;20097;-65
2021/04/27 07:37:51;;;;;;;13.07;1.80;;;;;;;;;;5069967;28;20016;-65
2021/04/27 07:40:17;;;;;;;4.22;1.73;;;;;;;;;;5069674;28;20710;-65
2021/04/27 07:42:43;;;;;;;3.65;1.90;;;;;;;;;;5069534;28;20016;-65
2021/04/27 07:45:09;;;;;;;6.03;1.90;;;;;;;;;;5061960;28;20024;-65
2021/04/27 07:47:34;;;;;;;4.97;1.90;;;;;;;;;;5068237;28;20017;-65
2021/04/27 07:49:59;;;;;;;2.95;1.60;;;;;;;;;;5068694;28;20036;-65
2021/04/27 07:52:26;;;;;;;4.67;1.40;;;;;;;;;;5066626;28;20016;-65
2021/04/27 07:54:51;;;;;;;4.82;1.73;;;;;;;;;;5070009;28;20271;-65
2021/04/27 07:57:16;;;;;;;7.13;1.52;;;;;;;;;;5069821;28;20028;-65
2021/04/27 07:59:41;;;;;;;4.53;2.23;;;;;;;;;;5069482;28;20026;-66
2021/04/27 08:02:07;;;;;;;3.73;1.53;;;;;;;;;;5068336;28;20423;-65
2021/04/27 08:04:32;;;;;;;8.07;2.07;;;;;;;;;;5051588;28;20017;-65
2021/04/27 08:06:57;;;;;;;6.70;1.58;;;;;;;;;;5058347;28;20275;-66
2021/04/27 08:09:22;;;;;;;4.97;2.38;;;;;;;;;;5052766;28;20123;-65
2021/04/27 08:11:48;;;;;;;4.00;2.15;;;;;;;;;;5068894;28;20059;-65
2021/04/27 08:14:13;;;;;;;2.25;1.50;;;;;;;;;;5070075;28;20019;-65
2021/04/27 08:16:39;;;;;;;5.50;1.80;;;;;;;;;;5070049;28;20072;-65
2021/04/27 08:19:04;;;;;;;5.20;1.50;;;;;;;;;;5069612;28;20063;-67
2021/04/27 08:21:29;;;;;;;6.60;2.38;;;;;;;;;;5069094;28;20392;-65
2021/04/27 08:23:55;;;;;;;7.28;2.20;;;;;;;;;;5069329;28;20485;-65
2021/04/27 08:26:20;;;;;;;6.72;2.17;;;;;;;;;;5069995;28;20021;-65
2021/04/27 08:28:45;;;;;;;4.57;1.70;;;;;;;;;;5069500;28;20361;-65
2021/04/27 08:31:10;;;;;;;3.35;1.90;;;;;;;;;;5069298;28;20473;-65
2021/04/27 08:33:36;;;;;;;3.22;2.03;;;;;;;;;;5069190;28;20392;-65
2021/04/27 08:36:02;;;;;;;9.45;2.05;;;;;;;;;;5055201;28;20064;-67
2021/04/27 08:38:27;;;;;;;17.42;1.98;;;;;;;;;;5070783;28;20024;-65
2021/04/27 08:40:54;;;;;;;3.97;1.92;;;;;;;;;;5073757;28;20078;-65
2021/04/27 08:43:19;;;;;;;9.25;2.60;;;;;;;;;;5073704;28;20442;-64
2021/04/27 08:45:44;;;;;;;3.15;1.40;;;;;;;;;;5072812;28;20012;-65
2021/04/27 08:48:11;;;;;;;4.43;1.80;;;;;;;;;;5073576;28;20036;-65
2021/04/27 08:50:36;;;;;;;3.72;2.15;;;;;;;;;;5071628;28;20025;-65
2021/04/27 08:53:02;;;;;;;4.85;2.15;;;;;;;;;;5071386;28;20077;-64
2021/04/27 08:55:27;;;;;;;4.97;1.88;;;;;;;;;;5068053;28;20465;-64
2021/04/27 08:57:53;;;;;;;3.92;1.65;;;;;;;;;;5072664;28;20105;-65
2021/04/27 09:00:19;;;;;;;4.93;1.93;;;;;;;;;;5073209;28;20023;-65
2021/04/27 09:02:55;;;;;;;9.05;2.35;;;;;;;;;;5073092;28;20289;-64
2021/04/27 09:05:21;;;;;;;6.05;1.42;;;;;;;;;;5073886;28;20468;-64
2021/04/27 09:07:48;;;;;;;4.90;2.28;;;;;;;;;;5066945;28;20453;-67
2021/04/27 09:10:20;;;;;;;4.55;1.48;;;;;;;;;;5059056;28;20054;-65
2021/04/27 09:12:47;;;;;;;3.83;1.80;;;;;;;;;;5072749;28;20115;-67
2021/04/27 09:15:22;;;;;;;4.70;2.05;;;;;;;;;;5073008;28;20392;-67
2021/04/27 09:17:47;;;;;;;5.10;1.92;;;;;;;;;;5072509;28;20468;-66
2021/04/27 09:20:12;;;;;;;4.10;2.33;;;;;;;;;;5071647;28;20112;-66
2021/04/27 09:22:39;;;;;;;6.32;2.42;;;;;;;;;;5060744;28;20266;-66
2021/04/27 09:25:08;;;;;;;4.25;1.60;;;;;;;;;;5070536;28;20087;-66
2021/04/27 09:27:49;;;;;;;4.22;2.10;;;;;;;;;;5066746;28;20024;-66
2021/04/27 09:30:20;;;;;;;3.10;1.33;;;;;;;;;;5073373;28;20036;-66
2021/04/27 09:32:52;;;;;;;7.85;2.00;;;;;;;;;;5065782;28;20067;-67
2021/04/27 09:35:20;;;;;;;4.60;1.70;;;;;;;;;;5070858;28;20024;-67
2021/04/27 09:38:04;;;;;;;10.60;3.38;;;;;;;;;;5070549;28;20024;-66
2021/04/27 09:40:29;;;;;;;8.32;2.50;;;;;;;;;;5054433;28;20024;-66
2021/04/27 09:43:04;;;;;;;8.25;2.25;;;;;;;;;;5070663;28;20140;-65
2021/04/27 09:45:39;;;;;;;6.88;2.22;;;;;;;;;;5069004;28;20385;-67
2021/04/27 09:48:05;;;;;;;13.65;2.53;;;;;;;;;;5071549;28;20019;-66
2021/04/27 09:50:30;;;;;;;6.32;2.35;;;;;;;;;;5070361;28;20416;-67
2021/04/27 09:52:55;;;;;;;8.00;2.30;;;;;;;;;;5068588;28;20024;-68
2021/04/27 09:55:21;;;;;;;3.95;2.38;;;;;;;;;;5058044;28;20302;-67
2021/04/27 09:57:53;;;;;;;4.05;2.10;;;;;;;;;;5060777;28;20055;-66
2021/04/27 10:00:18;;;;;;;3.70;2.25;;;;;;;;;;5059050;28;20028;-64
2021/04/27 10:02:44;;;;;;;6.07;2.05;;;;;;;;;;5069080;28;20484;-64
2021/04/27 10:05:09;;;;;;;2.75;1.63;;;;;;;;;;5067274;28;20027;-67
2021/04/27 10:07:35;;;;;;;8.27;2.55;;;;;;;;;;5065911;28;20024;-67
2021/04/27 10:10:00;;;;;;;15.90;2.78;;;;;;;;;;5071833;28;20039;-67
2021/04/27 10:12:25;;;;;;;7.15;2.47;;;;;;;;;;5069965;28;20028;-66
2021/04/27 10:14:50;;;;;;;4.82;1.80;;;;;;;;;;5068224;28;20045;-67
2021/04/27 10:17:19;;;;;;;2.47;1.73;;;;;;;;;;5071093;28;20520;-67
2021/04/27 10:19:45;;;;;;;2.63;1.83;;;;;;;;;;5071627;28;20658;-66
2021/04/27 10:22:11;;;;;;;5.95;2.33;;;;;;;;;;5071588;28;20028;-67
2021/04/27 10:24:37;;;;;;;5.18;2.70;;;;;;;;;;5070346;28;20027;-67
2021/04/27 10:27:02;;;;;;;7.38;2.75;;;;;;;;;;5056097;28;20033;-67
2021/04/27 10:29:28;;;;;;;4.30;2.10;;;;;;;;;;5071760;28;20495;-65
2021/04/27 10:32:13;;;;;;;7.73;2.43;;;;;;;;;;5070565;28;20039;-65
2021/04/27 10:34:58;;;;;;;9.57;2.50;;;;;;;;;;5070649;28;20275;-65
2021/04/27 10:37:28;;;;;;;3.65;2.50;;;;;;;;;;5067687;28;20408;-64
2021/04/27 10:39:53;;;;;;;3.30;1.70;;;;;;;;;;5068645;28;20028;-64
2021/04/27 10:42:20;;;;;;;5.20;2.35;;;;;;;;;;5070755;28;20595;-64
2021/04/27 10:44:49;;;;;;;5.07;2.17;;;;;;;;;;5070293;28;20017;-64
2021/04/27 10:47:18;;;;;;;5.18;2.83;;;;;;;;;;5065732;28;20028;-67
2021/04/27 10:49:44;;;;;;;6.68;1.98;;;;;;;;;;5070154;28;20032;-67
2021/04/27 10:52:24;;;;;;;4.22;2.70;;;;;;;;;;5059260;28;20412;-67
2021/04/27 10:54:49;;;;;;;7.00;3.08;;;;;;;;;;5071142;28;20070;-67
2021/04/27 10:57:15;;;;;;;5.28;2.60;;;;;;;;;;5070559;28;20032;-67
2021/04/27 10:59:57;;;;;;;9.25;3.10;;;;;;;;;;5069123;28;20417;-67
2021/04/27 11:02:25;;;;;;;4.07;2.30;;;;;;;;;;5070589;28;20020;-67
2021/04/27 11:04:52;;;;;;;9.95;2.25;;;;;;;;;;5069213;28;20015;-67
2021/04/27 11:07:20;;;;;;;7.68;2.63;;;;;;;;;;5065517;28;20070;-64
2021/04/27 11:09:58;;;;;;;7.43;2.63;;;;;;;;;;5053761;28;20027;-65
2021/04/27 11:12:29;;;;;;;5.78;2.47;;;;;;;;;;5065988;28;20024;-65
2021/04/27 11:14:59;;;;;;;11.93;2.90;;;;;;;;;;5065457;28;20024;-65
2021/04/27 11:17:40;;;;;;;9.32;3.03;;;;;;;;;;5069576;28;20035;-65
2021/04/27 11:20:07;;;;;;;7.50;2.90;;;;;;;;;;5061574;28;20040;-65
2021/04/27 11:22:33;;;;;;;5.93;2.08;;;;;;;;;;5070394;28;20020;-65
2021/04/27 11:25:00;;;;;;;8.15;2.42;;;;;;;;;;5052812;28;20469;-65
2021/04/27 11:27:25;;;;;;;3.60;1.88;;;;;;;;;;5070771;28;20031;-65
2021/04/27 11:29:57;;;;;;;5.57;1.90;;;;;;;;;;5070228;28;20408;-67
2021/04/27 11:32:22;;;;;;;5.65;2.47;;;;;;;;;;5059326;28;20350;-65
2021/04/27 11:34:53;;;;;;;7.55;2.50;;;;;;;;;;5058714;28;20455;-65
2021/04/27 11:37:23;;;;;;;6.47;2.85;;;;;;;;;;5069941;28;20041;-65
2021/04/27 11:39:48;;;;;;;6.17;2.63;;;;;;;;;;5069640;28;20047;-65
2021/04/27 11:42:21;;;;;;;6.27;2.67;;;;;;;;;;5069591;28;20762;-64
2021/04/27 11:44:46;;;;;;;3.95;2.22;;;;;;;;;;5070049;28;20251;-65
2021/04/27 11:47:17;;;;;;;4.30;1.97;;;;;;;;;;5065743;28;20488;-65
2021/04/27 11:49:55;;;;;;;2.63;1.58;;;;;;;;;;5068922;28;20269;-65
2021/04/27 11:52:38;;;;;;;6.75;2.10;;;;;;;;;;5061401;28;20042;-65
2021/04/27 11:55:05;;;;;;;6.65;2.58;;;;;;;;;;5069549;28;20028;-65
2021/04/27 11:57:30;;;;;;;6.20;2.67;;;;;;;;;;5068614;28;20470;-65
2021/04/27 11:59:59;;;;;;;17.80;4.22;;;;;;;;;;5068624;28;20405;-65
2021/04/27 12:02:29;;;;;;;3.83;2.33;;;;;;;;;;5069364;28;20013;-68
2021/04/27 12:04:54;;;;;;;6.45;2.60;;;;;;;;;;5064897;28;20020;-67
2021/04/27 12:07:24;;;;;;;3.20;1.80;;;;;;;;;;5063388;28;20027;-67
2021/04/27 12:09:52;;;;;;;4.40;1.90;;;;;;;;;;5070212;28;20334;-66
2021/04/27 12:12:18;;;;;;;9.57;2.78;;;;;;;;;;5058766;28;20449;-65
2021/04/27 12:14:50;;;;;;;3.72;2.60;;;;;;;;;;5069051;28;20032;-66
2021/04/27 12:17:32;;;;;;;3.38;1.80;;;;;;;;;;5068638;28;20021;-65
2021/04/27 12:20:23;;;;;;;4.70;2.55;;;;;;;;;;5063738;28;20059;-65
2021/04/27 12:22:50;;;;;;;5.10;1.83;;;;;;;;;;5065272;28;20051;-65
2021/04/27 12:25:21;;;;;;;7.55;3.05;;;;;;;;;;5064678;28;20017;-67
2021/04/27 12:27:47;;;;;;;7.43;2.58;;;;;;;;;;5068305;28;20025;-67
2021/04/27 12:30:16;;;;;;;6.03;2.85;;;;;;;;;;5068033;28;20179;-65
2021/04/27 12:32:47;;;;;;;5.15;2.70;;;;;;;;;;5069957;28;20067;-66
2021/04/27 12:35:18;;;;;;;7.97;2.90;;;;;;;;;;5068683;28;20020;-69
2021/04/27 12:37:44;;;;;;;6.68;2.97;;;;;;;;;;5059194;28;20020;-67
2021/04/27 12:40:17;;;;;;;5.10;2.70;;;;;;;;;;5069770;28;20025;-69
2021/04/27 12:42:46;;;;;;;4.97;2.92;;;;;;;;;;5068003;28;20024;-66
2021/04/27 12:45:11;;;;;;;6.25;2.70;;;;;;;;;;5070022;28;20025;-70
2021/04/27 12:47:37;;;;;;;4.00;2.42;;;;;;;;;;5067906;28;20362;-63
2021/04/27 12:50:11;;;;;;;4.97;3.03;;;;;;;;;;5069261;28;20031;-66
2021/04/27 12:52:40;;;;;;;5.80;2.55;;;;;;;;;;5065008;28;20019;-68
2021/04/27 12:55:17;;;;;;;8.73;2.60;;;;;;;;;;5063968;28;20311;-65
2021/04/27 12:57:42;;;;;;;11.23;2.92;;;;;;;;;;5063329;28;20540;-67
2021/04/27 13:00:09;;;;;;;5.10;2.15;;;;;;;;;;5067712;28;20150;-65
2021/04/27 13:02:34;;;;;;;5.47;1.90;;;;;;;;;;5068150;28;20062;-70
2021/04/27 13:05:00;;;;;;;3.78;1.90;;;;;;;;;;5068524;28;20113;-65
2021/04/27 13:07:35;;;;;;;13.65;2.33;;;;;;;;;;5067968;28;20017;-66
2021/04/27 13:10:03;;;;;;;5.05;1.92;;;;;;;;;;5053081;28;20028;-69
2021/04/27 13:12:29;;;;;;;13.90;2.90;;;;;;;;;;5068872;28;20033;-68
2021/04/27 13:14:55;;;;;;;10.70;3.58;;;;;;;;;;5068030;28;20024;-68
2021/04/27 13:17:23;;;;;;;4.60;2.35;;;;;;;;;;5058789;28;20495;-67
2021/04/27 13:19:53;;;;;;;3.30;1.65;;;;;;;;;;5066373;28;20441;-67
2021/04/27 13:22:20;;;;;;;5.07;2.97;;;;;;;;;;5068565;28;20112;-67
2021/04/27 13:24:52;;;;;;;4.63;2.60;;;;;;;;;;5068342;28;20459;-67
2021/04/27 13:27:24;;;;;;;5.97;2.70;;;;;;;;;;5072208;28;20028;-67
2021/04/27 13:29:59;;;;;;;10.77;2.97;;;;;;;;;;5069073;28;20016;-67
2021/04/27 13:32:24;;;;;;;9.43;2.80;;;;;;;;;;5069654;28;20020;-68
2021/04/27 13:34:50;;;;;;;3.88;2.03;;;;;;;;;;5065481;28;20081;-67
2021/04/27 13:37:15;;;;;;;9.23;2.42;;;;;;;;;;5071513;28;20032;-69
2021/04/27 13:39:41;;;;;;;7.13;2.85;;;;;;;;;;5071864;28;20033;-66
2021/04/27 13:42:06;;;;;;;6.47;2.65;;;;;;;;;;5071848;28;20013;-67
2021/04/27 13:44:32;;;;;;;3.58;2.28;;;;;;;;;;5068248;28;20021;-69
2021/04/27 13:46:58;;;;;;;5.95;3.08;;;;;;;;;;5058970;28;20017;-69
2021/04/27 13:49:23;;;;;;;4.88;2.90;;;;;;;;;;5068576;28;20703;-66
2021/04/27 13:51:48;;;;;;;3.67;2.72;;;;;;;;;;5071560;28;20029;-67
2021/04/27 13:54:14;;;;;;;9.87;3.00;;;;;;;;;;5070319;28;20484;-67
2021/04/27 13:56:39;;;;;;;5.15;2.55;;;;;;;;;;5072249;28;20269;-67
2021/04/27 13:59:04;;;;;;;3.70;1.80;;;;;;;;;;5070685;28;20023;-67
2021/04/27 14:01:30;;;;;;;3.33;2.13;;;;;;;;;;5071318;28;20028;-67
2021/04/27 14:03:56;;;;;;;5.82;2.50;;;;;;;;;;5067062;28;20032;-66
2021/04/27 14:06:21;;;;;;;6.67;2.17;;;;;;;;;;5068909;28;20025;-68
2021/04/27 14:08:46;;;;;;;6.53;1.90;;;;;;;;;;5069971;28;20267;-68
2021/04/27 14:11:11;;;;;;;7.70;2.83;;;;;;;;;;5071269;28;20275;-68
2021/04/27 14:13:36;;;;;;;8.25;2.78;;;;;;;;;;5071186;28;20923;-68
2021/04/27 14:16:02;;;;;;;10.30;2.60;;;;;;;;;;5071417;28;20393;-65
2021/04/27 14:18:27;;;;;;;5.10;2.35;;;;;;;;;;5070528;28;20286;-65
2021/04/27 14:20:53;;;;;;;4.07;2.67;;;;;;;;;;5072057;28;20054;-66
2021/04/27 14:23:19;;;;;;;6.60;2.97;;;;;;;;;;5071934;28;20420;-64
2021/04/27 14:25:44;;;;;;;4.32;1.90;;;;;;;;;;5071868;28;20020;-66
2021/04/27 14:28:12;;;;;;;6.03;2.47;;;;;;;;;;5071596;28;20472;-65
2021/04/27 14:30:38;;;;;;;4.90;2.78;;;;;;;;;;5072046;28;20024;-65
2021/04/27 14:33:03;;;;;;;4.47;2.80;;;;;;;;;;5069530;28;20542;-64
2021/04/27 14:35:29;;;;;;;3.45;2.30;;;;;;;;;;5070380;28;20016;-65
2021/04/27 14:37:54;;;;;;;8.55;2.67;;;;;;;;;;5070113;28;20048;-65